createdAt,value
2022-12-14T00:05:11.433Z,0
2022-12-14T00:11:34.440Z,0
2022-12-14T00:17:54.367Z,0
2022-12-14T00:24:17.567Z,0
2022-12-14T00:30:37.403Z,0
2022-12-14T00:37:00.534Z,0
2022-12-14T00:43:20.329Z,0
2022-12-14T00:49:43.397Z,0
2022-12-14T00:56:03.432Z,0
2022-12-14T01:02:26.484Z,0
2022-12-14T01:08:46.406Z,0
2022-12-14T01:15:09.468Z,0
2022-12-14T01:21:29.369Z,0
2022-12-14T01:27:52.502Z,0
2022-12-14T01:34:12.399Z,0
2022-12-14T01:40:35.387Z,0
2022-12-14T01:46:55.419Z,0
2022-12-14T01:53:18.637Z,0
2022-12-14T01:59:38.381Z,0
2022-12-14T02:06:01.386Z,0
2022-12-14T02:12:21.330Z,0
2022-12-14T02:18:44.535Z,0
2022-12-14T02:25:04.457Z,0
2022-12-14T02:31:27.448Z,0
2022-12-14T02:37:49.118Z,0
2022-12-14T02:44:10.392Z,0
2022-12-14T02:50:30.362Z,0
2022-12-14T02:56:53.358Z,0
2022-12-14T03:03:13.347Z,0
2022-12-14T03:09:36.412Z,0
2022-12-14T03:15:58.422Z,0
2022-12-14T03:22:21.340Z,0
2022-12-14T03:28:41.375Z,0
2022-12-14T03:35:04.345Z,0
2022-12-14T03:41:24.316Z,0
2022-12-14T03:47:47.375Z,0
2022-12-14T03:54:07.366Z,0
2022-12-14T04:00:30.394Z,0
2022-12-14T04:16:37.143Z,0
2022-12-14T04:22:57.384Z,0
2022-12-14T04:29:20.372Z,0
2022-12-14T04:35:40.381Z,0
2022-12-14T04:42:03.428Z,0
2022-12-14T04:48:23.356Z,0
2022-12-14T04:54:46.592Z,0
2022-12-14T05:01:06.539Z,0
2022-12-14T05:07:29.339Z,0
2022-12-14T05:13:49.420Z,0
2022-12-14T05:20:12.410Z,0
2022-12-14T05:26:32.326Z,0
2022-12-14T05:32:55.354Z,0
2022-12-14T05:39:15.321Z,0
2022-12-14T05:45:38.462Z,0
2022-12-14T05:51:58.345Z,0
2022-12-14T05:58:21.343Z,0
2022-12-14T06:04:41.476Z,0
2022-12-14T06:11:04.373Z,0
2022-12-14T06:17:24.470Z,0
2022-12-14T06:23:47.347Z,0
2022-12-14T06:30:07.492Z,0
2022-12-14T06:36:30.367Z,0
2022-12-14T06:42:50.352Z,0
2022-12-14T06:49:13.470Z,0
2022-12-14T06:55:33.442Z,1
2022-12-14T07:01:56.455Z,1
2022-12-14T07:08:16.386Z,3
2022-12-14T07:14:39.380Z,9
2022-12-14T07:20:59.392Z,15
2022-12-14T07:27:22.483Z,24
2022-12-14T07:33:42.487Z,37
2022-12-14T07:40:05.397Z,55
2022-12-14T07:46:25.444Z,70
2022-12-14T07:52:48.466Z,104
2022-12-14T07:59:08.524Z,156
2022-12-14T08:05:31.753Z,158
2022-12-14T08:11:51.323Z,200
2022-12-14T08:18:14.366Z,203
2022-12-14T08:24:34.402Z,168
2022-12-14T08:30:57.481Z,243
2022-12-14T08:37:17.489Z,347
2022-12-14T08:43:40.388Z,451
2022-12-14T08:50:00.765Z,396
2022-12-14T08:56:23.353Z,555
2022-12-14T09:12:48.290Z,596
2022-12-14T09:19:08.378Z,608
2022-12-14T09:25:31.538Z,479
2022-12-14T09:31:51.507Z,654
2022-12-14T09:38:14.440Z,802
2022-12-14T09:44:34.489Z,999
2022-12-14T09:50:57.745Z,685
2022-12-14T09:57:17.434Z,557
2022-12-14T10:03:40.630Z,648
2022-12-14T10:10:00.359Z,681
2022-12-14T10:16:23.409Z,713
2022-12-14T10:22:43.359Z,609
2022-12-14T10:29:06.398Z,478
2022-12-14T10:35:26.461Z,481
2022-12-14T10:41:49.493Z,520
2022-12-14T10:48:09.532Z,550
2022-12-14T10:54:32.498Z,589
2022-12-14T11:00:52.726Z,544
2022-12-14T11:07:15.491Z,467
2022-12-14T11:13:35.349Z,424
2022-12-14T11:19:58.360Z,492
2022-12-14T11:26:18.360Z,533
2022-12-14T11:32:41.465Z,400
2022-12-14T11:39:01.433Z,385
2022-12-14T11:45:24.452Z,387
2022-12-14T11:51:44.416Z,469
2022-12-14T11:58:07.371Z,460
2022-12-14T12:04:27.467Z,492
2022-12-14T12:10:50.637Z,503
2022-12-14T12:17:10.441Z,503
2022-12-14T12:23:33.512Z,508
2022-12-14T12:29:53.586Z,479
2022-12-14T12:36:20.440Z,497
2022-12-14T12:42:36.530Z,495
2022-12-14T12:48:59.390Z,498
2022-12-14T12:55:19.478Z,518
2022-12-14T13:01:42.575Z,553
2022-12-14T13:08:02.354Z,548
2022-12-14T13:14:25.359Z,549
2022-12-14T13:20:45.505Z,568
2022-12-14T13:27:13.742Z,570
2022-12-14T13:33:28.425Z,570
2022-12-14T13:39:51.357Z,568
2022-12-14T13:46:11.485Z,550
2022-12-14T13:52:34.335Z,536
2022-12-14T13:58:54.512Z,498
2022-12-14T14:05:17.359Z,449
2022-12-14T14:11:38.312Z,375
2022-12-14T14:35:49.967Z,150
2022-12-14T14:42:12.370Z,110
2022-12-14T14:48:32.820Z,102
2022-12-14T15:01:15.483Z,65
2022-12-14T15:07:38.335Z,48
2022-12-14T15:13:58.571Z,37
2022-12-14T15:20:21.818Z,30
2022-12-14T15:26:41.352Z,19
2022-12-14T15:33:05.380Z,14
2022-12-14T15:39:25.338Z,7
2022-12-14T15:45:48.425Z,4
2022-12-14T15:52:08.518Z,1
2022-12-14T15:58:31.339Z,1
2022-12-14T16:04:51.387Z,0
2022-12-14T16:11:14.728Z,0
2022-12-14T16:17:34.381Z,0
2022-12-14T16:23:57.445Z,0
2022-12-14T16:30:17.594Z,0
2022-12-14T16:36:40.351Z,0
2022-12-14T16:43:00.437Z,0
2022-12-14T16:49:23.364Z,0
2022-12-14T16:55:43.458Z,0
2022-12-14T17:02:09.343Z,0
2022-12-14T17:08:26.439Z,0
2022-12-14T17:14:50.331Z,0
2022-12-14T17:21:09.478Z,0
2022-12-14T17:27:32.505Z,0
2022-12-14T17:33:52.511Z,0
2022-12-14T17:40:15.454Z,0
2022-12-14T17:46:35.596Z,0
2022-12-14T17:52:58.358Z,0
2022-12-14T17:59:18.670Z,0
2022-12-14T18:05:46.738Z,0
2022-12-14T18:12:22.467Z,0
2022-12-14T18:18:24.464Z,0
2022-12-14T18:24:44.412Z,0
2022-12-14T18:31:07.497Z,0
2022-12-14T18:37:32.608Z,0
2022-12-14T18:43:50.780Z,0
2022-12-14T18:50:10.393Z,0
2022-12-14T18:56:33.433Z,0
2022-12-14T19:02:53.523Z,0
2022-12-14T19:09:16.560Z,0
2022-12-14T19:32:39.877Z,0
2022-12-14T19:38:59.323Z,0
2022-12-14T19:45:22.399Z,0
2022-12-14T19:51:42.350Z,0
2022-12-14T19:58:05.313Z,0
2022-12-14T20:04:25.387Z,0
2022-12-14T20:10:48.430Z,0
2022-12-14T20:17:08.424Z,0
2022-12-14T20:23:31.715Z,0
2022-12-14T20:29:51.343Z,0
2022-12-14T20:36:14.351Z,0
2022-12-14T20:42:34.363Z,0
2022-12-14T20:48:57.542Z,0
2022-12-14T20:55:17.399Z,0
2022-12-14T21:01:40.514Z,0
2022-12-14T21:08:00.350Z,0
2022-12-14T21:14:23.393Z,0
2022-12-14T21:20:43.358Z,0
2022-12-14T21:27:06.469Z,0
2022-12-14T21:33:26.496Z,0
2022-12-14T21:39:54.012Z,0
2022-12-14T21:46:09.434Z,0
2022-12-14T21:52:32.391Z,0
2022-12-14T21:58:54.017Z,0
2022-12-14T22:05:15.428Z,0
2022-12-14T22:11:35.319Z,0
2022-12-14T22:17:58.363Z,0
2022-12-14T22:24:18.437Z,0
2022-12-14T22:30:41.357Z,0
2022-12-14T22:37:01.323Z,0
2022-12-14T22:43:28.221Z,0
2022-12-14T22:49:44.338Z,0
2022-12-14T22:56:07.405Z,0
2022-12-14T23:19:13.352Z,0
2022-12-14T23:25:33.368Z,0
2022-12-14T23:31:56.381Z,0
2022-12-14T23:38:16.628Z,0
2022-12-14T23:44:39.420Z,0
2022-12-14T23:50:59.533Z,0
2022-12-14T23:57:26.122Z,0
